createdAt,value
2023-01-27T01:38:18.723Z,9.710148
2023-01-27T01:39:18.702Z,9.710859
2023-01-27T01:40:19.500Z,9.711131
2023-01-27T01:41:18.685Z,9.712026
2023-01-27T01:42:18.682Z,9.711933
2023-01-27T01:43:18.687Z,9.711688
2023-01-27T01:44:18.660Z,9.711742
2023-01-27T01:45:18.655Z,9.711757
2023-01-27T01:46:18.828Z,9.711773
2023-01-27T01:47:18.661Z,9.711953
2023-01-27T01:48:18.627Z,9.711884
2023-01-27T01:49:18.631Z,9.711793
2023-01-27T01:50:19.578Z,9.711791
2023-01-27T01:51:18.640Z,9.711757
2023-01-27T01:52:18.608Z,9.711787
2023-01-27T01:53:18.585Z,9.711727
2023-01-27T01:54:18.579Z,9.711726
2023-01-27T01:55:18.609Z,9.711681
2023-01-27T01:56:18.568Z,9.711678
2023-01-27T01:57:18.596Z,9.711645
2023-01-27T01:58:18.552Z,9.711622
2023-01-27T01:59:18.546Z,9.711700
2023-01-27T02:00:18.533Z,9.711803
2023-01-27T02:01:18.548Z,9.711756
2023-01-27T02:02:19.750Z,9.711772
2023-01-27T02:03:19.065Z,9.711816
2023-01-27T02:04:18.511Z,9.711764
2023-01-27T02:05:18.507Z,9.711884
2023-01-27T02:06:18.491Z,9.711826
2023-01-27T02:07:18.482Z,9.711555
2023-01-27T02:08:18.470Z,9.711741
2023-01-27T02:09:18.461Z,9.711704
2023-01-27T02:10:18.456Z,9.712021
2023-01-27T02:11:18.447Z,9.711888
2023-01-27T02:12:18.445Z,9.712036
2023-01-27T02:13:18.438Z,9.711801
2023-01-27T02:14:18.442Z,9.711640
2023-01-27T02:15:18.462Z,9.711474
2023-01-27T02:16:18.498Z,9.711179
2023-01-27T02:17:18.412Z,9.711383
2023-01-27T02:18:18.412Z,9.711168
2023-01-27T02:19:18.388Z,9.711658
2023-01-27T02:20:18.400Z,9.711766
2023-01-27T02:21:18.372Z,9.711833
2023-01-27T02:22:18.419Z,9.712025
2023-01-27T02:23:18.369Z,9.711843
2023-01-27T02:24:18.382Z,9.711682
2023-01-27T02:25:18.339Z,9.711806
2023-01-27T02:26:18.343Z,9.711951
2023-01-27T02:27:18.341Z,9.711916
2023-01-27T02:28:18.336Z,9.711994
2023-01-27T02:29:18.324Z,9.711957
2023-01-27T02:30:18.299Z,9.711859
2023-01-27T02:31:18.400Z,9.711671
2023-01-27T02:32:18.289Z,9.711635
2023-01-27T02:33:18.296Z,9.711692
2023-01-27T02:34:18.284Z,9.711929
2023-01-27T02:35:18.272Z,9.712000
2023-01-27T02:36:18.289Z,9.711954
2023-01-27T02:37:18.291Z,9.711983
2023-01-27T02:38:18.239Z,9.711912
2023-01-27T02:39:18.252Z,9.712017
2023-01-27T02:40:18.240Z,9.712162
2023-01-27T02:41:18.225Z,9.712226
2023-01-27T02:42:18.215Z,9.712215
2023-01-27T02:43:18.199Z,9.712321
2023-01-27T02:44:18.198Z,9.712226
2023-01-27T02:45:18.246Z,9.712050
2023-01-27T02:46:18.228Z,9.712016
2023-01-27T02:47:18.165Z,9.712249
2023-01-27T02:48:18.170Z,9.712502
2023-01-27T02:49:18.167Z,9.712464
2023-01-27T02:50:18.226Z,9.712583
2023-01-27T02:51:18.145Z,9.712301
2023-01-27T02:52:18.128Z,9.712055
2023-01-27T02:53:18.121Z,9.712190
2023-01-27T02:54:19.117Z,9.712594
2023-01-27T02:55:18.114Z,9.712934
2023-01-27T02:56:20.087Z,9.712929
2023-01-27T02:57:18.095Z,9.712590
2023-01-27T02:58:18.085Z,9.712412
2023-01-27T02:59:18.086Z,9.712439
2023-01-27T03:00:19.068Z,9.712246
2023-01-27T03:01:18.122Z,9.711666
2023-01-27T03:02:18.100Z,9.711790
2023-01-27T03:03:18.042Z,9.711759
2023-01-27T03:04:18.047Z,9.712327
2023-01-27T03:05:18.031Z,9.712083
2023-01-27T03:06:18.028Z,9.711413
2023-01-27T03:07:18.016Z,9.711232
2023-01-27T03:08:18.020Z,9.711089
2023-01-27T03:09:18.010Z,9.710380
2023-01-27T03:10:18.987Z,9.710588
2023-01-27T03:11:18.002Z,9.710932
2023-01-27T03:12:17.980Z,9.710935
2023-01-27T03:13:17.973Z,9.711773
2023-01-27T03:14:18.101Z,9.712267
2023-01-27T03:15:17.966Z,9.712753
2023-01-27T03:16:17.956Z,9.712569
2023-01-27T03:17:17.951Z,9.712176
2023-01-27T03:18:17.941Z,9.712051
2023-01-27T03:19:18.502Z,9.712197
2023-01-27T03:20:17.917Z,9.712510
2023-01-27T03:21:17.909Z,9.712597
2023-01-27T03:22:17.904Z,9.712640
2023-01-27T03:23:17.902Z,9.712498
2023-01-27T03:24:17.915Z,9.712604
2023-01-27T03:25:19.496Z,9.712655
2023-01-27T03:26:17.875Z,9.712020
2023-01-27T03:27:17.856Z,9.711566
2023-01-27T03:28:17.880Z,9.711903
2023-01-27T03:29:17.839Z,9.711569
2023-01-27T03:30:17.838Z,9.711343
2023-01-27T03:31:17.940Z,9.711581
2023-01-27T03:32:17.816Z,9.711404
2023-01-27T03:33:17.816Z,9.711373
2023-01-27T03:34:17.802Z,9.711312
2023-01-27T03:35:17.808Z,9.711215
2023-01-27T03:36:17.790Z,9.711254
2023-01-27T03:37:17.778Z,9.711336
2023-01-27T03:38:17.797Z,9.711349
2023-01-27T03:39:17.799Z,9.711300
2023-01-27T03:40:17.776Z,9.711258
2023-01-27T03:41:17.743Z,9.711369
2023-01-27T03:42:17.751Z,9.711479
2023-01-27T03:43:19.590Z,9.711619
2023-01-27T03:44:17.739Z,9.711543
2023-01-27T03:45:17.723Z,9.711475
2023-01-27T03:46:17.750Z,9.711449
2023-01-27T03:47:17.710Z,9.711575
2023-01-27T03:48:17.708Z,9.711526
2023-01-27T03:49:17.686Z,9.711763
2023-01-27T03:50:17.673Z,9.711965
2023-01-27T03:51:17.701Z,9.711742
2023-01-27T03:52:17.667Z,9.711594
2023-01-27T03:53:17.658Z,9.711523
2023-01-27T03:54:18.611Z,9.711448
2023-01-27T03:55:17.644Z,9.711464
2023-01-27T03:56:17.657Z,9.711351
2023-01-27T03:57:17.630Z,9.711345
2023-01-27T03:58:17.620Z,9.711198
2023-01-27T03:59:17.612Z,9.711351
2023-01-27T04:00:17.603Z,9.711219
2023-01-27T04:01:17.645Z,9.711276
2023-01-27T04:02:17.594Z,9.711515
2023-01-27T04:03:17.575Z,9.711811
2023-01-27T04:04:17.576Z,9.711608
2023-01-27T04:05:17.554Z,9.711720
2023-01-27T04:06:18.556Z,9.711873
2023-01-27T04:07:17.568Z,9.711780
2023-01-27T04:08:17.553Z,9.711799
2023-01-27T04:09:17.522Z,9.711767
2023-01-27T04:10:17.548Z,9.711667
2023-01-27T04:11:17.515Z,9.711654
2023-01-27T04:12:17.502Z,9.711723
2023-01-27T04:13:17.516Z,9.711725
2023-01-27T04:14:17.480Z,9.711741
2023-01-27T04:15:17.495Z,9.711825
2023-01-27T04:16:17.467Z,9.711884
2023-01-27T04:17:17.465Z,9.711860
2023-01-27T04:18:17.455Z,9.711853
2023-01-27T04:19:17.448Z,9.711980
2023-01-27T04:20:17.448Z,9.711977
2023-01-27T04:21:17.444Z,9.711956
2023-01-27T04:34:25.296Z,9.711918
2023-01-27T04:35:27.891Z,9.711794
2023-01-27T04:36:27.278Z,9.711764
2023-01-27T04:37:25.273Z,9.711694
2023-01-27T04:38:25.282Z,9.711569
2023-01-27T04:39:25.247Z,9.711569
2023-01-27T04:40:25.246Z,9.711569
2023-01-27T04:41:25.241Z,9.711569
2023-01-27T04:42:25.223Z,9.711569
2023-01-27T04:43:25.221Z,9.711631
2023-01-27T04:44:26.140Z,9.711626
2023-01-27T04:45:25.247Z,9.711626
2023-01-27T04:46:25.208Z,9.711626
2023-01-27T04:47:25.183Z,9.711626
2023-01-27T04:48:25.177Z,9.711626
2023-01-27T04:49:25.196Z,9.711626
2023-01-27T04:50:25.173Z,9.711626
2023-01-27T04:51:25.153Z,9.711626
2023-01-27T04:52:25.147Z,9.711626
2023-01-27T04:53:25.141Z,9.711539
2023-01-27T04:54:25.129Z,9.711533
2023-01-27T04:55:25.134Z,9.711585
2023-01-27T04:56:25.115Z,9.711567
2023-01-27T04:57:25.114Z,9.711487
2023-01-27T04:58:25.663Z,9.711502
2023-01-27T04:59:25.102Z,9.711464
2023-01-27T05:00:25.741Z,9.711452
2023-01-27T05:01:25.075Z,9.711416
2023-01-27T05:02:25.078Z,9.711425
2023-01-27T05:03:25.070Z,9.711493
2023-01-27T05:04:25.047Z,9.711421
2023-01-27T05:05:25.048Z,9.711543
2023-01-27T05:06:25.083Z,9.711498
2023-01-27T05:07:25.036Z,9.711526
2023-01-27T05:08:25.029Z,9.711463
2023-01-27T05:09:25.029Z,9.711645
2023-01-27T05:10:25.007Z,9.711653
2023-01-27T05:11:25.726Z,9.711652
2023-01-27T05:12:24.995Z,9.711653
2023-01-27T05:13:25.008Z,9.711638
2023-01-27T05:14:25.003Z,9.711717
2023-01-27T05:15:24.967Z,9.711786
2023-01-27T05:16:25.006Z,9.711843
2023-01-27T05:17:24.948Z,9.711886
2023-01-27T05:18:24.947Z,9.711838
2023-01-27T05:19:24.933Z,9.711873
2023-01-27T05:20:24.937Z,9.712046
2023-01-27T05:21:24.928Z,9.712242
2023-01-27T05:22:24.942Z,9.712317
2023-01-27T05:23:24.904Z,9.711710
2023-01-27T05:24:24.935Z,9.711491
2023-01-27T05:25:24.897Z,9.711519
2023-01-27T05:26:24.913Z,9.711597
2023-01-27T05:27:24.887Z,9.711702
2023-01-27T05:28:24.861Z,9.711614
2023-01-27T05:29:24.873Z,9.711860
2023-01-27T05:30:24.847Z,9.711962
2023-01-27T05:31:24.896Z,9.712255
2023-01-27T05:32:24.831Z,9.712304
2023-01-27T05:33:26.720Z,9.712209
2023-01-27T05:34:25.170Z,9.711990
2023-01-27T05:35:25.720Z,9.712176
2023-01-27T05:36:24.835Z,9.712108
2023-01-27T05:37:25.724Z,9.712083
2023-01-27T05:38:26.723Z,9.712101
2023-01-27T05:39:24.781Z,9.711999
2023-01-27T05:40:24.780Z,9.711944
2023-01-27T05:41:24.756Z,9.711915
2023-01-27T05:42:26.728Z,9.711897
2023-01-27T05:43:24.737Z,9.711915
2023-01-27T05:44:25.708Z,9.711897
2023-01-27T05:45:24.739Z,9.711978
2023-01-27T05:46:24.737Z,9.712017
2023-01-27T05:47:24.732Z,9.711990
2023-01-27T05:48:24.708Z,9.711916
2023-01-27T05:49:24.733Z,9.711844
2023-01-27T05:50:24.742Z,9.711816
2023-01-27T05:51:24.704Z,9.711825
2023-01-27T05:52:24.680Z,9.711804
2023-01-27T05:53:25.672Z,9.711809
2023-01-27T05:54:25.243Z,9.711720
2023-01-27T05:55:24.685Z,9.711757
2023-01-27T05:56:24.649Z,9.711761
2023-01-27T05:57:24.631Z,9.711792
2023-01-27T05:58:24.634Z,9.711763
2023-01-27T05:59:24.633Z,9.711756
2023-01-27T06:00:24.611Z,9.711777
2023-01-27T06:01:25.160Z,9.711759
2023-01-27T06:02:24.602Z,9.711749
2023-01-27T06:03:24.591Z,9.711742
2023-01-27T06:04:24.590Z,9.711769
2023-01-27T06:05:24.605Z,9.711720
2023-01-27T06:06:24.572Z,9.711699
2023-01-27T06:07:24.565Z,9.711686
2023-01-27T06:08:24.566Z,9.711720
2023-01-27T06:09:25.168Z,9.711721
2023-01-27T06:10:24.591Z,9.711735
2023-01-27T06:11:24.541Z,9.711694
2023-01-27T06:12:24.513Z,9.711697
2023-01-27T06:13:24.520Z,9.711697
2023-01-27T06:14:24.536Z,9.711692
2023-01-27T06:15:24.500Z,9.711722
2023-01-27T06:16:24.546Z,9.711721
2023-01-27T06:19:31.858Z,9.711675
2023-01-27T06:20:32.615Z,9.711689
2023-01-27T06:21:31.851Z,9.711685
2023-01-27T06:22:31.838Z,9.711716
2023-01-27T06:23:33.747Z,9.711693
2023-01-27T06:24:31.886Z,9.711777
2023-01-27T06:25:31.888Z,9.711732
2023-01-27T06:26:33.627Z,9.711732
2023-01-27T06:27:31.811Z,9.711720
2023-01-27T06:28:33.621Z,9.711626
2023-01-27T06:29:31.787Z,9.711744
2023-01-27T06:30:32.780Z,9.711765
2023-01-27T06:31:31.842Z,9.711772
2023-01-27T06:32:31.771Z,9.711769
2023-01-27T06:33:31.767Z,9.711757
2023-01-27T06:34:32.627Z,9.711679
2023-01-27T06:35:31.723Z,9.711625
2023-01-27T06:36:32.726Z,9.711652
2023-01-27T06:37:33.632Z,9.711646
2023-01-27T06:38:31.730Z,9.711595
2023-01-27T06:39:31.703Z,9.711635
2023-01-27T06:40:31.753Z,9.711664
2023-01-27T06:41:31.691Z,9.711643
2023-01-27T06:42:31.676Z,9.711591
2023-01-27T06:43:31.675Z,9.711602
2023-01-27T06:44:31.682Z,9.711691
2023-01-27T06:45:32.653Z,9.711636
2023-01-27T06:46:31.788Z,9.711682
2023-01-27T06:47:31.639Z,9.711673
2023-01-27T06:48:31.708Z,9.711697
2023-01-27T06:49:31.626Z,9.711716
2023-01-27T06:50:31.667Z,9.711674
2023-01-27T06:51:31.613Z,9.711729
2023-01-27T06:52:31.603Z,9.711718
2023-01-27T06:53:31.609Z,9.711693
2023-01-27T06:54:31.599Z,9.711745
2023-01-27T06:55:31.609Z,9.711781
2023-01-27T06:56:32.819Z,9.711668
2023-01-27T06:57:31.644Z,9.711518
2023-01-27T06:58:38.228Z,9.711740
2023-01-27T06:59:31.552Z,9.711670
2023-01-27T07:00:31.555Z,9.711823
2023-01-27T07:01:31.576Z,9.711833
2023-01-27T07:02:31.588Z,9.711858
2023-01-27T07:03:31.510Z,9.711874
2023-01-27T07:04:31.505Z,9.712139
2023-01-27T07:05:31.500Z,9.712264
2023-01-27T07:06:31.504Z,9.711840
2023-01-27T07:07:31.491Z,9.711679
2023-01-27T07:08:31.496Z,9.711629
2023-01-27T07:09:37.525Z,9.711790
2023-01-27T07:10:33.470Z,9.711573
2023-01-27T07:11:31.474Z,9.711767
2023-01-27T07:12:31.456Z,9.711551
2023-01-27T07:13:31.444Z,9.711604
2023-01-27T07:14:31.502Z,9.711744
2023-01-27T07:15:31.431Z,9.711469
2023-01-27T07:16:33.271Z,9.711914
2023-01-27T07:17:31.417Z,9.711885
2023-01-27T07:18:31.447Z,9.711797
2023-01-27T07:19:31.405Z,9.711749
2023-01-27T07:20:31.391Z,9.711691
2023-01-27T07:21:31.397Z,9.711728
2023-01-27T07:22:31.427Z,9.711710
2023-01-27T07:23:31.374Z,9.711732
2023-01-27T07:24:31.352Z,9.711675
2023-01-27T07:25:31.355Z,9.711720
2023-01-27T07:26:31.344Z,9.711698
2023-01-27T07:27:32.230Z,9.711690
2023-01-27T07:28:31.366Z,9.711642
2023-01-27T07:29:31.341Z,9.711679
2023-01-27T07:30:31.317Z,9.711697
2023-01-27T07:31:31.387Z,9.711688
2023-01-27T07:32:31.319Z,9.711708
2023-01-27T07:33:31.305Z,9.711699
2023-01-27T07:34:31.289Z,9.711702
2023-01-27T07:35:31.281Z,9.711681
2023-01-27T07:36:31.278Z,9.711655
2023-01-27T07:37:31.262Z,9.711651
2023-01-27T07:38:31.278Z,9.711664
2023-01-27T07:39:32.134Z,9.711658
2023-01-27T07:40:31.236Z,9.711679
2023-01-27T07:41:31.226Z,9.711628
2023-01-27T07:42:31.215Z,9.711632
2023-01-27T07:43:31.215Z,9.711646
2023-01-27T07:44:31.195Z,9.711671
2023-01-27T07:45:31.333Z,9.711710
2023-01-27T07:46:31.182Z,9.711655
2023-01-27T07:47:31.178Z,9.711672
2023-01-27T07:48:31.173Z,9.711649
2023-01-27T07:49:31.225Z,9.711678
2023-01-27T07:50:31.196Z,9.711732
2023-01-27T07:51:31.157Z,9.711699
2023-01-27T07:52:31.139Z,9.711769
2023-01-27T07:53:31.147Z,9.711746
2023-01-27T07:54:31.137Z,9.711793
2023-01-27T07:55:31.119Z,9.711717
2023-01-27T07:56:31.111Z,9.711765
2023-01-27T07:57:31.109Z,9.711857
2023-01-27T07:58:32.674Z,9.711686
2023-01-27T07:59:31.265Z,9.711774
2023-01-27T08:00:31.122Z,9.711725
2023-01-27T08:01:31.077Z,9.711652
2023-01-27T08:02:31.232Z,9.711602
2023-01-27T08:03:31.073Z,9.711699
2023-01-27T08:04:35.208Z,9.711679
2023-01-27T08:05:33.062Z,9.711753
2023-01-27T08:06:31.079Z,9.711700
2023-01-27T08:07:31.035Z,9.711641
2023-01-27T08:08:31.103Z,9.711621
2023-01-27T08:09:31.004Z,9.711813
2023-01-27T08:10:31.017Z,9.711812
2023-01-27T08:11:31.004Z,9.711716
2023-01-27T08:12:31.040Z,9.711555
2023-01-27T08:13:31.024Z,9.711810
2023-01-27T08:14:30.969Z,9.711864
2023-01-27T08:15:30.988Z,9.711852
2023-01-27T08:16:32.819Z,9.711737
2023-01-27T08:17:30.944Z,9.711637
2023-01-27T08:18:30.941Z,9.711679
2023-01-27T08:19:32.632Z,9.711646
2023-01-27T08:20:30.930Z,9.711649
2023-01-27T08:21:30.918Z,9.711618
2023-01-27T08:22:30.907Z,9.711636
2023-01-27T08:23:30.910Z,9.711555
2023-01-27T08:24:30.941Z,9.711554
2023-01-27T08:25:30.893Z,9.711606
2023-01-27T08:26:31.649Z,9.711561
2023-01-27T08:27:30.890Z,9.711569
2023-01-27T08:28:30.883Z,9.711577
2023-01-27T08:29:30.880Z,9.711563
2023-01-27T08:30:30.902Z,9.711612
2023-01-27T08:31:30.933Z,9.711637
2023-01-27T08:32:30.845Z,9.711586
2023-01-27T08:33:30.868Z,9.711588
2023-01-27T08:34:30.826Z,9.711549
2023-01-27T08:35:30.816Z,9.711568
2023-01-27T08:36:30.806Z,9.711555
2023-01-27T08:37:30.868Z,9.711610
2023-01-27T08:38:30.801Z,9.711576
2023-01-27T08:39:30.787Z,9.711634
2023-01-27T08:40:31.764Z,9.711653
2023-01-27T08:41:30.778Z,9.711649
2023-01-27T08:42:30.755Z,9.711650
2023-01-27T08:43:31.776Z,9.711658
2023-01-27T08:44:30.759Z,9.711675
2023-01-27T08:45:30.738Z,9.711640
2023-01-27T08:46:30.737Z,9.711645
2023-01-27T08:47:30.728Z,9.711640
2023-01-27T08:48:30.720Z,9.711683
2023-01-27T08:49:30.714Z,9.711668
2023-01-27T08:50:30.763Z,9.711677
2023-01-27T08:51:30.698Z,9.711658
2023-01-27T08:52:30.709Z,9.711615
2023-01-27T08:53:30.697Z,9.711688
2023-01-27T08:54:32.395Z,9.711657
2023-01-27T08:55:30.681Z,9.711687
2023-01-27T08:56:31.660Z,9.711691
2023-01-27T21:32:17.208Z,9.712075
2023-01-27T21:33:17.207Z,9.712055
2023-01-27T21:34:17.190Z,9.712112
2023-01-27T21:35:17.209Z,9.712112
2023-01-27T21:36:17.189Z,9.711983
2023-01-27T21:37:17.168Z,9.711983
2023-01-27T21:38:17.170Z,9.711976
2023-01-27T21:39:17.158Z,9.711972
2023-01-27T21:40:17.146Z,9.711994
2023-01-27T21:41:17.151Z,9.711972
2023-01-27T21:42:17.134Z,9.711967
2023-01-27T21:43:17.129Z,9.711967
2023-01-27T21:44:17.119Z,9.711933
2023-01-27T21:45:17.571Z,9.711959
2023-01-27T21:46:17.155Z,9.711959
2023-01-27T21:47:17.127Z,9.711777
2023-01-27T21:48:17.095Z,9.711665
2023-01-27T21:49:17.077Z,9.711662
2023-01-27T21:50:17.075Z,9.711699
2023-01-27T21:51:17.068Z,9.711650
2023-01-27T21:52:17.075Z,9.711676
2023-01-27T21:53:17.056Z,9.711646
2023-01-27T21:54:17.056Z,9.711691
2023-01-27T21:55:17.468Z,9.711663
2023-01-27T21:56:17.031Z,9.711624
2023-01-27T21:57:17.024Z,9.711639
2023-01-27T21:58:17.034Z,9.711611
2023-01-27T21:59:17.003Z,9.711623
2023-01-27T22:00:17.005Z,9.711700
2023-01-27T22:01:17.012Z,9.711594
2023-01-27T22:02:16.983Z,9.711587
2023-01-27T22:03:16.976Z,9.711686
2023-01-27T22:04:17.011Z,9.711562
2023-01-27T22:05:17.424Z,9.711641
2023-01-27T22:06:17.052Z,9.711633
2023-01-27T22:07:16.977Z,9.711736
2023-01-27T22:08:16.930Z,9.711679
2023-01-27T22:09:16.919Z,9.711714
2023-01-27T22:10:16.932Z,9.711687
2023-01-27T22:11:17.583Z,9.711650
2023-01-27T22:12:18.561Z,9.711668
2023-01-27T22:13:16.896Z,9.711723
2023-01-27T22:14:17.478Z,9.711762
2023-01-27T22:15:17.165Z,9.711695
2023-01-27T22:16:16.906Z,9.711741
2023-01-27T22:17:18.978Z,9.711636
2023-01-27T22:18:16.894Z,9.711653
2023-01-27T22:19:16.845Z,9.711700
2023-01-27T22:20:16.837Z,9.711687
2023-01-27T22:21:16.830Z,9.711716
2023-01-27T22:22:16.824Z,9.711719
2023-01-27T22:23:16.813Z,9.711707
2023-01-27T22:24:17.494Z,9.711685
2023-01-27T22:25:17.306Z,9.711649
2023-01-27T22:26:16.788Z,9.711827
2023-01-27T22:27:16.799Z,9.711759
2023-01-27T22:28:16.786Z,9.711794
2023-01-27T22:32:24.686Z,9.711596
2023-01-27T22:33:24.611Z,9.711574
2023-01-27T22:34:24.604Z,9.711520
2023-01-27T22:35:24.609Z,9.711600
2023-01-27T22:36:24.599Z,9.711481
2023-01-27T22:37:24.589Z,9.711522
2023-01-27T22:38:24.573Z,9.711560
2023-01-27T22:39:25.495Z,9.711466
2023-01-27T22:40:24.557Z,9.711499
2023-01-27T22:41:25.484Z,9.711514
2023-01-27T22:42:24.571Z,9.711561
2023-01-27T22:43:24.533Z,9.711625
2023-01-27T22:44:24.522Z,9.711679
2023-01-27T22:45:24.576Z,9.711531
2023-01-27T22:46:24.528Z,9.711531
2023-01-27T22:47:24.500Z,9.711496
2023-01-27T22:48:24.509Z,9.711533
2023-01-27T22:49:24.487Z,9.711596
2023-01-27T22:50:25.425Z,9.711584
2023-01-27T22:51:24.988Z,9.711575
2023-01-27T22:52:24.463Z,9.711598
2023-01-27T22:53:24.462Z,9.711653
2023-01-27T22:54:24.445Z,9.711605
2023-01-27T22:55:24.436Z,9.711636
2023-01-27T22:56:24.442Z,9.711614
2023-01-27T22:57:24.422Z,9.711640
2023-01-27T22:58:24.409Z,9.711635
2023-01-27T22:59:24.410Z,9.711565
2023-01-27T23:00:24.400Z,9.711617
2023-01-27T23:01:24.507Z,9.711581
2023-01-27T23:02:24.394Z,9.711655
2023-01-27T23:03:24.374Z,9.711634
2023-01-27T23:04:24.387Z,9.711596
2023-01-27T23:05:24.357Z,9.711595
2023-01-27T23:06:25.418Z,9.711577
2023-01-27T23:07:24.351Z,9.711545
2023-01-27T23:08:24.333Z,9.711660
2023-01-27T23:09:24.324Z,9.711680
2023-01-27T23:10:24.321Z,9.711624
2023-01-27T23:11:24.341Z,9.711577
2023-01-27T23:12:24.305Z,9.711737
2023-01-27T23:13:24.292Z,9.711819
2023-01-27T23:14:24.287Z,9.711866
2023-01-27T23:15:24.283Z,9.711761
2023-01-27T23:16:25.367Z,9.711596
2023-01-27T23:17:24.287Z,9.711668
2023-01-27T23:18:24.256Z,9.711665
2023-01-27T23:19:24.267Z,9.711617
2023-01-27T23:20:24.254Z,9.711662
2023-01-27T23:21:24.244Z,9.711703
2023-01-27T23:22:24.230Z,9.711818
2023-01-27T23:23:25.235Z,9.711824
2023-01-27T23:24:24.234Z,9.711890
2023-01-27T23:25:24.231Z,9.711793
2023-01-27T23:26:24.916Z,9.711633
2023-01-27T23:27:24.223Z,9.711501
2023-01-27T23:28:24.205Z,9.711742
2023-01-27T23:29:25.822Z,9.711778
2023-01-27T23:30:25.185Z,9.711880
2023-01-27T23:31:24.433Z,9.711867
2023-01-27T23:32:25.010Z,9.711876
2023-01-27T23:33:24.229Z,9.711897
2023-01-27T23:34:24.136Z,9.711810
2023-01-27T23:35:24.146Z,9.711743
2023-01-27T23:36:24.139Z,9.711829
